sensor_id;sensor_type;location;lat;lon;timestamp;temperature;humidity
24085;DHT22;12268;52.110;5.548;2023-02-28T00:00:09;4.70;99.90
24085;DHT22;12268;52.110;5.548;2023-02-28T00:02:41;4.70;99.90
24085;DHT22;12268;52.110;5.548;2023-02-28T00:05:08;4.70;99.90
24085;DHT22;12268;52.110;5.548;2023-02-28T00:07:34;4.70;99.90
24085;DHT22;12268;52.110;5.548;2023-02-28T00:10:00;4.90;99.90
24085;DHT22;12268;52.110;5.548;2023-02-28T00:12:26;4.90;99.90
24085;DHT22;12268;52.110;5.548;2023-02-28T00:14:52;4.90;99.90
24085;DHT22;12268;52.110;5.548;2023-02-28T00:17:17;5.20;99.90
24085;DHT22;12268;52.110;5.548;2023-02-28T00:19:47;5.20;99.90
24085;DHT22;12268;52.110;5.548;2023-02-28T00:22:13;5.30;99.90
24085;DHT22;12268;52.110;5.548;2023-02-28T00:24:38;5.30;99.90
24085;DHT22;12268;52.110;5.548;2023-02-28T00:27:04;5.40;99.90
24085;DHT22;12268;52.110;5.548;2023-02-28T00:29:30;5.40;99.90
24085;DHT22;12268;52.110;5.548;2023-02-28T00:31:55;5.40;99.90
24085;DHT22;12268;52.110;5.548;2023-02-28T00:34:21;5.40;99.90
24085;DHT22;12268;52.110;5.548;2023-02-28T00:36:46;5.30;99.90
24085;DHT22;12268;52.110;5.548;2023-02-28T00:39:14;5.40;99.90
24085;DHT22;12268;52.110;5.548;2023-02-28T00:41:40;5.40;99.90
24085;DHT22;12268;52.110;5.548;2023-02-28T00:44:05;5.50;99.90
24085;DHT22;12268;52.110;5.548;2023-02-28T00:46:31;5.60;99.90
24085;DHT22;12268;52.110;5.548;2023-02-28T00:48:56;5.60;99.90
24085;DHT22;12268;52.110;5.548;2023-02-28T00:51:22;5.70;99.90
24085;DHT22;12268;52.110;5.548;2023-02-28T00:53:47;5.90;99.90
24085;DHT22;12268;52.110;5.548;2023-02-28T00:56:13;5.80;99.90
24085;DHT22;12268;52.110;5.548;2023-02-28T00:58:39;5.70;99.90
24085;DHT22;12268;52.110;5.548;2023-02-28T01:01:05;5.90;99.90
24085;DHT22;12268;52.110;5.548;2023-02-28T01:03:31;6.10;99.90
24085;DHT22;12268;52.110;5.548;2023-02-28T01:05:57;6.10;99.90
24085;DHT22;12268;52.110;5.548;2023-02-28T01:08:23;6.20;99.90
24085;DHT22;12268;52.110;5.548;2023-02-28T01:10:49;6.10;99.90
24085;DHT22;12268;52.110;5.548;2023-02-28T01:13:15;6.10;99.90
24085;DHT22;12268;52.110;5.548;2023-02-28T01:15:45;6.10;99.90
24085;DHT22;12268;52.110;5.548;2023-02-28T01:18:11;6.10;99.90
24085;DHT22;12268;52.110;5.548;2023-02-28T01:20:37;6.20;99.90
24085;DHT22;12268;52.110;5.548;2023-02-28T01:23:03;6.20;99.90
24085;DHT22;12268;52.110;5.548;2023-02-28T01:25:28;6.40;99.90
24085;DHT22;12268;52.110;5.548;2023-02-28T01:27:54;6.50;99.90
24085;DHT22;12268;52.110;5.548;2023-02-28T01:30:20;6.50;99.90
24085;DHT22;12268;52.110;5.548;2023-02-28T01:32:45;6.70;99.90
24085;DHT22;12268;52.110;5.548;2023-02-28T01:35:11;6.60;99.90
24085;DHT22;12268;52.110;5.548;2023-02-28T01:37:36;6.50;99.90
24085;DHT22;12268;52.110;5.548;2023-02-28T01:40:02;6.60;99.90
24085;DHT22;12268;52.110;5.548;2023-02-28T01:42:28;6.70;99.90
24085;DHT22;12268;52.110;5.548;2023-02-28T01:45:01;6.80;99.90
24085;DHT22;12268;52.110;5.548;2023-02-28T01:47:40;6.80;99.90
24085;DHT22;12268;52.110;5.548;2023-02-28T01:50:10;6.90;99.90
24085;DHT22;12268;52.110;5.548;2023-02-28T01:52:37;6.90;99.90
24085;DHT22;12268;52.110;5.548;2023-02-28T01:55:04;6.90;99.90
24085;DHT22;12268;52.110;5.548;2023-02-28T01:57:38;7.00;99.90
24085;DHT22;12268;52.110;5.548;2023-02-28T02:00:09;7.00;99.90
24085;DHT22;12268;52.110;5.548;2023-02-28T02:02:35;7.00;99.90
24085;DHT22;12268;52.110;5.548;2023-02-28T02:05:12;7.10;99.90
24085;DHT22;12268;52.110;5.548;2023-02-28T02:07:41;7.10;99.90
24085;DHT22;12268;52.110;5.548;2023-02-28T02:10:12;7.20;99.90
24085;DHT22;12268;52.110;5.548;2023-02-28T02:18:04;7.40;99.90
24085;DHT22;12268;52.110;5.548;2023-02-28T02:20:51;7.40;99.90
24085;DHT22;12268;52.110;5.548;2023-02-28T02:29:35;7.50;99.90
24085;DHT22;12268;52.110;5.548;2023-02-28T02:37:47;7.50;99.90
24085;DHT22;12268;52.110;5.548;2023-02-28T02:40:21;7.50;99.90
24085;DHT22;12268;52.110;5.548;2023-02-28T02:42:49;7.50;99.90
24085;DHT22;12268;52.110;5.548;2023-02-28T02:45:27;7.30;99.90
24085;DHT22;12268;52.110;5.548;2023-02-28T02:47:56;7.40;99.90
24085;DHT22;12268;52.110;5.548;2023-02-28T02:50:34;7.40;99.90
24085;DHT22;12268;52.110;5.548;2023-02-28T02:53:03;7.30;99.90
24085;DHT22;12268;52.110;5.548;2023-02-28T02:55:31;7.30;99.90
24085;DHT22;12268;52.110;5.548;2023-02-28T02:58:04;7.40;99.90
24085;DHT22;12268;52.110;5.548;2023-02-28T03:00:37;7.40;99.90
24085;DHT22;12268;52.110;5.548;2023-02-28T03:03:04;7.40;99.90
24085;DHT22;12268;52.110;5.548;2023-02-28T03:05:50;7.40;99.90
24085;DHT22;12268;52.110;5.548;2023-02-28T03:08:16;7.40;99.90
24085;DHT22;12268;52.110;5.548;2023-02-28T03:10:44;7.40;99.90
24085;DHT22;12268;52.110;5.548;2023-02-28T03:13:30;7.40;99.90
24085;DHT22;12268;52.110;5.548;2023-02-28T03:16:34;7.40;99.90
24085;DHT22;12268;52.110;5.548;2023-02-28T03:21:38;7.40;99.90
24085;DHT22;12268;52.110;5.548;2023-02-28T03:24:27;7.20;99.90
24085;DHT22;12268;52.110;5.548;2023-02-28T03:27:04;6.90;99.90
24085;DHT22;12268;52.110;5.548;2023-02-28T03:29:38;6.50;99.90
24085;DHT22;12268;52.110;5.548;2023-02-28T03:32:18;6.40;99.90
24085;DHT22;12268;52.110;5.548;2023-02-28T03:34:53;6.60;99.90
24085;DHT22;12268;52.110;5.548;2023-02-28T03:37:22;6.50;99.90
24085;DHT22;12268;52.110;5.548;2023-02-28T03:40:03;6.40;99.90
24085;DHT22;12268;52.110;5.548;2023-02-28T03:42:35;6.40;99.90
24085;DHT22;12268;52.110;5.548;2023-02-28T03:45:05;6.40;99.90
24085;DHT22;12268;52.110;5.548;2023-02-28T03:47:46;6.40;99.90
24085;DHT22;12268;52.110;5.548;2023-02-28T03:50:24;6.20;99.90
24085;DHT22;12268;52.110;5.548;2023-02-28T03:52:58;6.20;99.90
24085;DHT22;12268;52.110;5.548;2023-02-28T03:55:28;6.30;99.90
24085;DHT22;12268;52.110;5.548;2023-02-28T03:58:22;6.20;99.90
24085;DHT22;12268;52.110;5.548;2023-02-28T04:00:59;6.10;99.90
24085;DHT22;12268;52.110;5.548;2023-02-28T04:03:33;6.10;99.90
24085;DHT22;12268;52.110;5.548;2023-02-28T04:05:59;5.50;99.90
24085;DHT22;12268;52.110;5.548;2023-02-28T04:08:24;5.60;99.90
24085;DHT22;12268;52.110;5.548;2023-02-28T04:10:56;5.40;99.90
24085;DHT22;12268;52.110;5.548;2023-02-28T04:13:23;5.40;99.90
24085;DHT22;12268;52.110;5.548;2023-02-28T04:15:49;5.50;99.90
24085;DHT22;12268;52.110;5.548;2023-02-28T04:18:14;5.40;99.90
24085;DHT22;12268;52.110;5.548;2023-02-28T04:20:40;5.50;99.90
24085;DHT22;12268;52.110;5.548;2023-02-28T04:23:05;5.70;99.90
24085;DHT22;12268;52.110;5.548;2023-02-28T04:25:31;5.80;99.90
24085;DHT22;12268;52.110;5.548;2023-02-28T04:27:56;5.70;99.90
24085;DHT22;12268;52.110;5.548;2023-02-28T04:30:22;5.90;99.90
24085;DHT22;12268;52.110;5.548;2023-02-28T04:32:47;5.90;99.90
24085;DHT22;12268;52.110;5.548;2023-02-28T04:35:13;6.00;99.90
24085;DHT22;12268;52.110;5.548;2023-02-28T04:37:38;6.10;99.90
24085;DHT22;12268;52.110;5.548;2023-02-28T04:40:04;6.20;99.90
24085;DHT22;12268;52.110;5.548;2023-02-28T04:42:30;6.30;99.90
24085;DHT22;12268;52.110;5.548;2023-02-28T04:45:02;6.20;99.90
24085;DHT22;12268;52.110;5.548;2023-02-28T04:47:28;5.90;99.90
24085;DHT22;12268;52.110;5.548;2023-02-28T04:49:53;6.10;99.90
24085;DHT22;12268;52.110;5.548;2023-02-28T04:52:19;6.00;99.90
24085;DHT22;12268;52.110;5.548;2023-02-28T04:54:44;5.90;99.90
24085;DHT22;12268;52.110;5.548;2023-02-28T04:57:10;5.80;99.90
24085;DHT22;12268;52.110;5.548;2023-02-28T04:59:36;5.80;99.90
24085;DHT22;12268;52.110;5.548;2023-02-28T05:02:01;5.50;99.90
24085;DHT22;12268;52.110;5.548;2023-02-28T05:04:32;5.60;99.90
24085;DHT22;12268;52.110;5.548;2023-02-28T05:06:59;5.80;99.90
24085;DHT22;12268;52.110;5.548;2023-02-28T05:09:25;6.00;99.90
24085;DHT22;12268;52.110;5.548;2023-02-28T05:11:51;5.90;99.90
24085;DHT22;12268;52.110;5.548;2023-02-28T05:14:16;6.00;99.90
24085;DHT22;12268;52.110;5.548;2023-02-28T05:16:42;6.10;99.90
24085;DHT22;12268;52.110;5.548;2023-02-28T05:19:08;6.10;99.90
24085;DHT22;12268;52.110;5.548;2023-02-28T05:21:35;6.10;99.90
24085;DHT22;12268;52.110;5.548;2023-02-28T05:24:04;6.20;99.90
24085;DHT22;12268;52.110;5.548;2023-02-28T05:26:31;6.30;99.90
24085;DHT22;12268;52.110;5.548;2023-02-28T05:28:59;6.30;99.90
24085;DHT22;12268;52.110;5.548;2023-02-28T05:31:24;6.40;99.90
24085;DHT22;12268;52.110;5.548;2023-02-28T05:33:50;6.60;99.90
24085;DHT22;12268;52.110;5.548;2023-02-28T05:36:16;6.80;99.90
24085;DHT22;12268;52.110;5.548;2023-02-28T05:38:42;6.90;99.90
24085;DHT22;12268;52.110;5.548;2023-02-28T05:41:09;6.80;99.90
24085;DHT22;12268;52.110;5.548;2023-02-28T05:43:35;6.60;99.90
24085;DHT22;12268;52.110;5.548;2023-02-28T05:46:04;6.50;99.90
24085;DHT22;12268;52.110;5.548;2023-02-28T05:48:30;6.30;99.90
24085;DHT22;12268;52.110;5.548;2023-02-28T05:50:57;6.50;99.90
24085;DHT22;12268;52.110;5.548;2023-02-28T05:53:23;6.40;99.90
24085;DHT22;12268;52.110;5.548;2023-02-28T05:55:48;6.30;99.90
24085;DHT22;12268;52.110;5.548;2023-02-28T05:58:14;6.40;99.90
24085;DHT22;12268;52.110;5.548;2023-02-28T06:00:39;6.50;99.90
24085;DHT22;12268;52.110;5.548;2023-02-28T06:03:05;6.70;99.90
24085;DHT22;12268;52.110;5.548;2023-02-28T06:05:30;6.70;99.90
24085;DHT22;12268;52.110;5.548;2023-02-28T06:07:56;6.50;99.90
24085;DHT22;12268;52.110;5.548;2023-02-28T06:10:21;6.50;99.90
24085;DHT22;12268;52.110;5.548;2023-02-28T06:12:47;6.30;99.90
24085;DHT22;12268;52.110;5.548;2023-02-28T06:15:13;6.00;99.90
24085;DHT22;12268;52.110;5.548;2023-02-28T06:17:40;5.90;99.90
24085;DHT22;12268;52.110;5.548;2023-02-28T06:20:07;5.80;99.90
24085;DHT22;12268;52.110;5.548;2023-02-28T06:22:34;5.90;99.90
24085;DHT22;12268;52.110;5.548;2023-02-28T06:25:00;6.00;99.90
24085;DHT22;12268;52.110;5.548;2023-02-28T06:27:25;5.90;99.90
24085;DHT22;12268;52.110;5.548;2023-02-28T06:29:54;6.00;99.90
24085;DHT22;12268;52.110;5.548;2023-02-28T06:32:21;6.10;99.90
24085;DHT22;12268;52.110;5.548;2023-02-28T06:34:46;6.20;99.90
24085;DHT22;12268;52.110;5.548;2023-02-28T06:37:12;6.20;99.90
24085;DHT22;12268;52.110;5.548;2023-02-28T06:39:37;6.30;99.90
24085;DHT22;12268;52.110;5.548;2023-02-28T06:42:03;6.50;99.90
24085;DHT22;12268;52.110;5.548;2023-02-28T06:44:29;6.50;99.90
24085;DHT22;12268;52.110;5.548;2023-02-28T06:47:04;6.50;99.90
24085;DHT22;12268;52.110;5.548;2023-02-28T06:49:31;6.60;99.90
24085;DHT22;12268;52.110;5.548;2023-02-28T06:51:56;6.70;99.90
24085;DHT22;12268;52.110;5.548;2023-02-28T06:54:22;6.70;99.90
24085;DHT22;12268;52.110;5.548;2023-02-28T06:56:47;6.70;99.90
24085;DHT22;12268;52.110;5.548;2023-02-28T06:59:13;6.70;99.90
24085;DHT22;12268;52.110;5.548;2023-02-28T07:01:39;6.80;99.90
24085;DHT22;12268;52.110;5.548;2023-02-28T07:04:05;6.80;99.90
24085;DHT22;12268;52.110;5.548;2023-02-28T07:06:31;6.80;99.90
24085;DHT22;12268;52.110;5.548;2023-02-28T07:08:57;6.80;99.90
24085;DHT22;12268;52.110;5.548;2023-02-28T07:11:25;6.90;99.90
24085;DHT22;12268;52.110;5.548;2023-02-28T07:13:54;6.90;99.90
24085;DHT22;12268;52.110;5.548;2023-02-28T07:16:20;7.00;99.90
24085;DHT22;12268;52.110;5.548;2023-02-28T07:18:46;7.10;99.90
24085;DHT22;12268;52.110;5.548;2023-02-28T07:21:12;7.20;99.90
24085;DHT22;12268;52.110;5.548;2023-02-28T07:23:38;7.20;99.90
24085;DHT22;12268;52.110;5.548;2023-02-28T07:26:06;7.20;99.90
24085;DHT22;12268;52.110;5.548;2023-02-28T07:28:32;7.30;99.90
24085;DHT22;12268;52.110;5.548;2023-02-28T07:31:05;7.40;99.90
24085;DHT22;12268;52.110;5.548;2023-02-28T07:33:31;7.50;99.90
24085;DHT22;12268;52.110;5.548;2023-02-28T07:36:06;7.60;99.90
24085;DHT22;12268;52.110;5.548;2023-02-28T07:38:36;7.70;99.90
24085;DHT22;12268;52.110;5.548;2023-02-28T07:41:02;7.70;99.90
24085;DHT22;12268;52.110;5.548;2023-02-28T07:43:30;7.90;99.90
24085;DHT22;12268;52.110;5.548;2023-02-28T07:46:00;7.80;99.90
24085;DHT22;12268;52.110;5.548;2023-02-28T07:48:26;7.00;99.90
24085;DHT22;12268;52.110;5.548;2023-02-28T07:50:58;7.10;99.90
24085;DHT22;12268;52.110;5.548;2023-02-28T07:53:24;7.20;99.90
24085;DHT22;12268;52.110;5.548;2023-02-28T07:55:50;7.50;99.90
24085;DHT22;12268;52.110;5.548;2023-02-28T07:58:16;7.10;99.90
24085;DHT22;12268;52.110;5.548;2023-02-28T08:00:41;7.20;99.90
24085;DHT22;12268;52.110;5.548;2023-02-28T08:03:10;7.20;99.90
24085;DHT22;12268;52.110;5.548;2023-02-28T08:05:40;7.40;99.90
24085;DHT22;12268;52.110;5.548;2023-02-28T08:08:08;7.40;99.90
24085;DHT22;12268;52.110;5.548;2023-02-28T08:10:34;7.00;99.90
24085;DHT22;12268;52.110;5.548;2023-02-28T08:13:00;6.80;99.90
24085;DHT22;12268;52.110;5.548;2023-02-28T08:15:26;6.70;99.90
24085;DHT22;12268;52.110;5.548;2023-02-28T08:17:52;6.20;99.90
24085;DHT22;12268;52.110;5.548;2023-02-28T08:20:17;6.00;99.90
24085;DHT22;12268;52.110;5.548;2023-02-28T08:22:43;6.20;99.90
24085;DHT22;12268;52.110;5.548;2023-02-28T08:25:08;6.30;99.90
24085;DHT22;12268;52.110;5.548;2023-02-28T08:27:35;6.50;99.90
24085;DHT22;12268;52.110;5.548;2023-02-28T08:30:01;6.50;99.90
24085;DHT22;12268;52.110;5.548;2023-02-28T08:32:27;6.60;99.90
24085;DHT22;12268;52.110;5.548;2023-02-28T08:34:52;7.00;99.90
24085;DHT22;12268;52.110;5.548;2023-02-28T08:37:18;7.10;99.90
24085;DHT22;12268;52.110;5.548;2023-02-28T08:39:43;6.70;99.90
24085;DHT22;12268;52.110;5.548;2023-02-28T08:42:09;7.10;99.90
24085;DHT22;12268;52.110;5.548;2023-02-28T08:44:34;7.00;99.90
24085;DHT22;12268;52.110;5.548;2023-02-28T08:47:00;7.30;99.90
24085;DHT22;12268;52.110;5.548;2023-02-28T08:49:25;7.70;99.90
24085;DHT22;12268;52.110;5.548;2023-02-28T08:51:51;8.00;99.90
24085;DHT22;12268;52.110;5.548;2023-02-28T08:54:17;8.20;99.90
24085;DHT22;12268;52.110;5.548;2023-02-28T08:56:45;8.90;99.90
24085;DHT22;12268;52.110;5.548;2023-02-28T08:59:12;9.50;99.90
24085;DHT22;12268;52.110;5.548;2023-02-28T09:01:38;10.00;99.90
24085;DHT22;12268;52.110;5.548;2023-02-28T09:04:04;10.70;99.90
24085;DHT22;12268;52.110;5.548;2023-02-28T09:06:29;10.60;99.30
24085;DHT22;12268;52.110;5.548;2023-02-28T09:08:58;10.00;99.60
24085;DHT22;12268;52.110;5.548;2023-02-28T09:11:25;9.40;97.80
24085;DHT22;12268;52.110;5.548;2023-02-28T09:13:51;8.40;97.30
24085;DHT22;12268;52.110;5.548;2023-02-28T09:16:17;7.70;99.00
24085;DHT22;12268;52.110;5.548;2023-02-28T09:18:43;8.00;99.90
24085;DHT22;12268;52.110;5.548;2023-02-28T09:21:12;8.80;99.40
24085;DHT22;12268;52.110;5.548;2023-02-28T09:23:42;9.40;98.00
24085;DHT22;12268;52.110;5.548;2023-02-28T09:26:17;9.90;97.50
24085;DHT22;12268;52.110;5.548;2023-02-28T09:28:43;9.70;96.40
24085;DHT22;12268;52.110;5.548;2023-02-28T09:31:13;10.30;96.20
24085;DHT22;12268;52.110;5.548;2023-02-28T09:33:39;10.50;94.70
24085;DHT22;12268;52.110;5.548;2023-02-28T09:36:05;11.30;96.20
24085;DHT22;12268;52.110;5.548;2023-02-28T09:38:31;11.60;94.20
24085;DHT22;12268;52.110;5.548;2023-02-28T09:41:00;12.20;92.30
24085;DHT22;12268;52.110;5.548;2023-02-28T09:43:29;12.20;91.50
24085;DHT22;12268;52.110;5.548;2023-02-28T09:46:03;11.60;91.20
24085;DHT22;12268;52.110;5.548;2023-02-28T09:48:35;12.10;90.90
24085;DHT22;12268;52.110;5.548;2023-02-28T09:51:28;13.40;92.50
24085;DHT22;12268;52.110;5.548;2023-02-28T09:53:50;13.80;87.50
24085;DHT22;12268;52.110;5.548;2023-02-28T09:56:26;14.50;84.30
24085;DHT22;12268;52.110;5.548;2023-02-28T10:01:39;14.40;78.40
24085;DHT22;12268;52.110;5.548;2023-02-28T10:04:35;13.90;80.00
24085;DHT22;12268;52.110;5.548;2023-02-28T10:07:06;14.10;78.80
24085;DHT22;12268;52.110;5.548;2023-02-28T10:09:42;13.40;75.10
24085;DHT22;12268;52.110;5.548;2023-02-28T10:12:11;13.00;75.20
24085;DHT22;12268;52.110;5.548;2023-02-28T10:14:39;13.60;78.30
24085;DHT22;12268;52.110;5.548;2023-02-28T10:17:14;14.70;78.20
24085;DHT22;12268;52.110;5.548;2023-02-28T10:22:31;14.70;72.50
24085;DHT22;12268;52.110;5.548;2023-02-28T10:24:59;14.20;72.60
24085;DHT22;12268;52.110;5.548;2023-02-28T10:27:30;14.50;73.20
24085;DHT22;12268;52.110;5.548;2023-02-28T10:29:58;14.60;70.00
24085;DHT22;12268;52.110;5.548;2023-02-28T10:32:33;14.50;70.30
24085;DHT22;12268;52.110;5.548;2023-02-28T10:37:37;15.10;68.30
24085;DHT22;12268;52.110;5.548;2023-02-28T10:40:05;13.80;69.90
24085;DHT22;12268;52.110;5.548;2023-02-28T10:42:31;13.20;74.40
24085;DHT22;12268;52.110;5.548;2023-02-28T10:45:30;12.70;74.60
24085;DHT22;12268;52.110;5.548;2023-02-28T10:48:02;13.40;73.90
24085;DHT22;12268;52.110;5.548;2023-02-28T10:50:51;14.00;72.40
24085;DHT22;12268;52.110;5.548;2023-02-28T10:56:02;14.30;73.10
24085;DHT22;12268;52.110;5.548;2023-02-28T10:58:46;14.90;69.90
24085;DHT22;12268;52.110;5.548;2023-02-28T11:01:15;15.60;69.70
24085;DHT22;12268;52.110;5.548;2023-02-28T11:03:40;15.70;66.10
24085;DHT22;12268;52.110;5.548;2023-02-28T11:08:52;14.90;68.60
24085;DHT22;12268;52.110;5.548;2023-02-28T11:11:20;14.90;72.50
24085;DHT22;12268;52.110;5.548;2023-02-28T11:13:48;15.40;73.20
24085;DHT22;12268;52.110;5.548;2023-02-28T11:16:15;15.90;70.70
24085;DHT22;12268;52.110;5.548;2023-02-28T11:18:50;16.00;70.00
24085;DHT22;12268;52.110;5.548;2023-02-28T11:21:22;16.40;66.30
24085;DHT22;12268;52.110;5.548;2023-02-28T11:24:00;15.90;68.80
24085;DHT22;12268;52.110;5.548;2023-02-28T11:26:41;15.80;66.20
24085;DHT22;12268;52.110;5.548;2023-02-28T11:29:25;14.80;69.40
24085;DHT22;12268;52.110;5.548;2023-02-28T11:34:27;13.50;72.90
24085;DHT22;12268;52.110;5.548;2023-02-28T11:36:57;13.00;68.00
24085;DHT22;12268;52.110;5.548;2023-02-28T11:39:24;12.70;73.90
24085;DHT22;12268;52.110;5.548;2023-02-28T11:47:58;13.10;73.50
24085;DHT22;12268;52.110;5.548;2023-02-28T11:56:07;15.10;70.90
24085;DHT22;12268;52.110;5.548;2023-02-28T11:58:52;16.80;70.00
24085;DHT22;12268;52.110;5.548;2023-02-28T12:01:46;16.30;66.00
24085;DHT22;12268;52.110;5.548;2023-02-28T12:04:26;15.60;68.40
24085;DHT22;12268;52.110;5.548;2023-02-28T12:10:09;15.70;66.70
24085;DHT22;12268;52.110;5.548;2023-02-28T12:13:01;15.60;66.60
24085;DHT22;12268;52.110;5.548;2023-02-28T12:15:58;14.90;65.90
24085;DHT22;12268;52.110;5.548;2023-02-28T12:18:42;14.70;72.80
24085;DHT22;12268;52.110;5.548;2023-02-28T12:21:39;14.90;65.20
24085;DHT22;12268;52.110;5.548;2023-02-28T12:26:50;16.00;67.60
24085;DHT22;12268;52.110;5.548;2023-02-28T12:29:41;15.00;63.10
24085;DHT22;12268;52.110;5.548;2023-02-28T12:32:13;13.80;65.00
24085;DHT22;12268;52.110;5.548;2023-02-28T12:34:49;13.90;68.00
24085;DHT22;12268;52.110;5.548;2023-02-28T12:37:30;14.60;68.00
24085;DHT22;12268;52.110;5.548;2023-02-28T12:40:02;15.10;67.50
24085;DHT22;12268;52.110;5.548;2023-02-28T12:42:33;16.00;67.90
24085;DHT22;12268;52.110;5.548;2023-02-28T12:45:10;16.50;65.90
24085;DHT22;12268;52.110;5.548;2023-02-28T12:47:38;18.20;62.90
24085;DHT22;12268;52.110;5.548;2023-02-28T12:50:09;17.20;62.30
24085;DHT22;12268;52.110;5.548;2023-02-28T13:00:57;19.00;57.80
24085;DHT22;12268;52.110;5.548;2023-02-28T13:09:15;15.60;62.70
24085;DHT22;12268;52.110;5.548;2023-02-28T13:11:49;14.50;63.90
24085;DHT22;12268;52.110;5.548;2023-02-28T13:14:37;12.60;68.00
24085;DHT22;12268;52.110;5.548;2023-02-28T13:17:11;12.10;69.70
24085;DHT22;12268;52.110;5.548;2023-02-28T13:19:42;12.20;69.20
24085;DHT22;12268;52.110;5.548;2023-02-28T13:24:52;11.30;71.60
24085;DHT22;12268;52.110;5.548;2023-02-28T13:27:31;11.00;74.70
24085;DHT22;12268;52.110;5.548;2023-02-28T13:29:57;10.90;72.70
24085;DHT22;12268;52.110;5.548;2023-02-28T13:39:56;10.30;74.60
24085;DHT22;12268;52.110;5.548;2023-02-28T13:45:20;10.10;76.50
24085;DHT22;12268;52.110;5.548;2023-02-28T13:48:01;10.00;74.10
24085;DHT22;12268;52.110;5.548;2023-02-28T13:50:34;9.60;73.80
24085;DHT22;12268;52.110;5.548;2023-02-28T13:58:53;9.80;73.80
24085;DHT22;12268;52.110;5.548;2023-02-28T14:01:47;9.50;76.90
24085;DHT22;12268;52.110;5.548;2023-02-28T14:04:46;9.90;76.30
24085;DHT22;12268;52.110;5.548;2023-02-28T14:07:32;10.30;78.00
24085;DHT22;12268;52.110;5.548;2023-02-28T14:10:04;10.10;79.40
24085;DHT22;12268;52.110;5.548;2023-02-28T14:15:36;9.50;78.20
24085;DHT22;12268;52.110;5.548;2023-02-28T14:18:11;9.70;77.60
24085;DHT22;12268;52.110;5.548;2023-02-28T14:20:40;9.90;76.40
24085;DHT22;12268;52.110;5.548;2023-02-28T14:31:43;9.50;75.00
24085;DHT22;12268;52.110;5.548;2023-02-28T14:36:50;9.20;77.50
24085;DHT22;12268;52.110;5.548;2023-02-28T14:39:24;9.10;77.40
24085;DHT22;12268;52.110;5.548;2023-02-28T14:41:50;9.00;79.60
24085;DHT22;12268;52.110;5.548;2023-02-28T14:44:22;9.20;80.10
24085;DHT22;12268;52.110;5.548;2023-02-28T14:46:50;9.70;78.30
24085;DHT22;12268;52.110;5.548;2023-02-28T14:49:30;9.90;78.40
24085;DHT22;12268;52.110;5.548;2023-02-28T14:54:41;9.20;78.50
24085;DHT22;12268;52.110;5.548;2023-02-28T14:57:30;9.50;78.30
24085;DHT22;12268;52.110;5.548;2023-02-28T15:00:04;9.50;77.50
24085;DHT22;12268;52.110;5.548;2023-02-28T15:02:37;9.50;79.20
24085;DHT22;12268;52.110;5.548;2023-02-28T15:05:22;9.30;78.10
24085;DHT22;12268;52.110;5.548;2023-02-28T15:08:02;9.20;78.60
24085;DHT22;12268;52.110;5.548;2023-02-28T15:10:28;9.20;76.70
24085;DHT22;12268;52.110;5.548;2023-02-28T15:12:57;8.90;77.20
24085;DHT22;12268;52.110;5.548;2023-02-28T15:17:56;9.00;81.00
24085;DHT22;12268;52.110;5.548;2023-02-28T15:20:23;9.20;81.60
24085;DHT22;12268;52.110;5.548;2023-02-28T15:22:50;9.10;79.90
24085;DHT22;12268;52.110;5.548;2023-02-28T15:25:20;8.90;78.50
24085;DHT22;12268;52.110;5.548;2023-02-28T15:27:52;8.80;79.20
24085;DHT22;12268;52.110;5.548;2023-02-28T15:30:20;8.70;79.20
24085;DHT22;12268;52.110;5.548;2023-02-28T15:33:22;8.70;82.40
24085;DHT22;12268;52.110;5.548;2023-02-28T15:35:47;9.10;78.80
24085;DHT22;12268;52.110;5.548;2023-02-28T15:38:27;9.50;79.40
24085;DHT22;12268;52.110;5.548;2023-02-28T15:40:57;9.20;78.30
24085;DHT22;12268;52.110;5.548;2023-02-28T15:43:31;8.80;77.80
24085;DHT22;12268;52.110;5.548;2023-02-28T15:46:10;8.70;80.90
24085;DHT22;12268;52.110;5.548;2023-02-28T15:48:37;8.70;78.90
24085;DHT22;12268;52.110;5.548;2023-02-28T15:54:08;8.50;78.00
24085;DHT22;12268;52.110;5.548;2023-02-28T15:56:44;8.60;79.50
24085;DHT22;12268;52.110;5.548;2023-02-28T15:59:42;8.40;78.80
24085;DHT22;12268;52.110;5.548;2023-02-28T16:02:15;8.20;76.10
24085;DHT22;12268;52.110;5.548;2023-02-28T16:07:22;8.20;79.20
24085;DHT22;12268;52.110;5.548;2023-02-28T16:09:47;8.10;77.80
24085;DHT22;12268;52.110;5.548;2023-02-28T16:12:13;8.20;79.10
24085;DHT22;12268;52.110;5.548;2023-02-28T16:14:39;8.40;81.90
24085;DHT22;12268;52.110;5.548;2023-02-28T16:17:08;8.50;79.60
24085;DHT22;12268;52.110;5.548;2023-02-28T16:19:40;8.60;79.60
24085;DHT22;12268;52.110;5.548;2023-02-28T16:22:05;8.50;80.30
24085;DHT22;12268;52.110;5.548;2023-02-28T16:24:31;8.50;79.70
24085;DHT22;12268;52.110;5.548;2023-02-28T16:26:56;8.00;77.90
24085;DHT22;12268;52.110;5.548;2023-02-28T16:29:32;7.90;78.10
24085;DHT22;12268;52.110;5.548;2023-02-28T16:32:00;7.80;78.40
24085;DHT22;12268;52.110;5.548;2023-02-28T16:34:26;7.70;81.00
24085;DHT22;12268;52.110;5.548;2023-02-28T16:36:52;8.00;82.60
24085;DHT22;12268;52.110;5.548;2023-02-28T16:39:18;8.00;82.30
24085;DHT22;12268;52.110;5.548;2023-02-28T16:41:47;8.00;81.30
24085;DHT22;12268;52.110;5.548;2023-02-28T16:44:27;7.90;82.90
24085;DHT22;12268;52.110;5.548;2023-02-28T16:46:54;8.00;83.40
24085;DHT22;12268;52.110;5.548;2023-02-28T16:49:19;7.90;83.70
24085;DHT22;12268;52.110;5.548;2023-02-28T16:51:46;8.00;83.60
24085;DHT22;12268;52.110;5.548;2023-02-28T16:54:11;8.10;85.20
24085;DHT22;12268;52.110;5.548;2023-02-28T16:56:40;8.00;84.90
24085;DHT22;12268;52.110;5.548;2023-02-28T16:59:08;7.90;85.60
24085;DHT22;12268;52.110;5.548;2023-02-28T17:01:34;8.00;85.40
24085;DHT22;12268;52.110;5.548;2023-02-28T17:03:59;8.00;85.80
24085;DHT22;12268;52.110;5.548;2023-02-28T17:06:29;8.10;86.00
24085;DHT22;12268;52.110;5.548;2023-02-28T17:08:56;7.90;86.00
24085;DHT22;12268;52.110;5.548;2023-02-28T17:11:23;7.80;86.80
24085;DHT22;12268;52.110;5.548;2023-02-28T17:13:49;7.70;88.10
24085;DHT22;12268;52.110;5.548;2023-02-28T17:16:27;7.60;87.50
24085;DHT22;12268;52.110;5.548;2023-02-28T17:18:57;7.60;87.80
24085;DHT22;12268;52.110;5.548;2023-02-28T17:21:22;7.70;88.10
24085;DHT22;12268;52.110;5.548;2023-02-28T17:23:48;7.60;88.30
24085;DHT22;12268;52.110;5.548;2023-02-28T17:26:15;7.60;88.50
24085;DHT22;12268;52.110;5.548;2023-02-28T17:28:42;7.60;88.60
24085;DHT22;12268;52.110;5.548;2023-02-28T17:31:08;7.50;88.80
24085;DHT22;12268;52.110;5.548;2023-02-28T17:33:34;7.40;89.20
24085;DHT22;12268;52.110;5.548;2023-02-28T17:36:00;7.40;89.30
24085;DHT22;12268;52.110;5.548;2023-02-28T17:38:25;7.30;89.50
24085;DHT22;12268;52.110;5.548;2023-02-28T17:40:51;7.20;89.90
24085;DHT22;12268;52.110;5.548;2023-02-28T17:43:25;7.20;90.20
24085;DHT22;12268;52.110;5.548;2023-02-28T17:45:51;7.20;90.30
24085;DHT22;12268;52.110;5.548;2023-02-28T17:48:17;7.20;90.60
24085;DHT22;12268;52.110;5.548;2023-02-28T17:50:42;7.10;90.60